Time;durP1;ratioP1;P1;durP2;ratioP2;P2;SDS_P1;SDS_P2;PMS_P1;PMS_P2;Temp;Humidity;BMP_temperature;BMP_pressure;BME280_temperature;BME280_humidity;BME280_pressure;Samples;Min_cycle;Max_cycle;Signal;HPM_P1;HPM_P2
2022/07/29 00:02:02;;;;;;;7.60;3.70;;;;;;;21.30;60.66;101237.85;107064;1253;61127;-70
2022/07/29 00:04:33;;;;;;;9.00;3.70;;;;;;;21.25;61.34;101240.05;107096;1251;61748;-69
2022/07/29 00:07:04;;;;;;;6.90;3.90;;;;;;;21.19;61.47;101237.30;107016;1251;74124;-71
2022/07/29 00:09:33;;;;;;;6.20;3.80;;;;;;;21.24;61.36;101233.20;107140;1251;61174;-71
2022/07/29 00:12:22;;;;;;;7.70;4.00;;;;;;;21.20;61.57;101226.94;107075;1251;70114;-75
2022/07/29 00:14:55;;;;;;;11.00;4.50;;;;;;;21.25;60.52;101236.45;106970;1252;74426;-76
2022/07/29 00:17:25;;;;;;;8.00;3.80;;;;;;;21.21;60.31;101237.63;106734;1254;59095;-72
2022/07/29 00:19:54;;;;;;;6.00;3.50;;;;;;;21.10;60.68;101238.77;106783;1254;60172;-73
2022/07/29 00:22:23;;;;;;;8.90;3.90;;;;;;;21.02;61.41;101242.48;106869;1253;74416;-71
2022/07/29 00:24:52;;;;;;;6.60;3.10;;;;;;;20.97;61.73;101239.16;106983;1251;72040;-72
2022/07/29 00:27:21;;;;;;;9.30;3.80;;;;;;;21.01;61.83;101246.66;107006;1251;70350;-72
2022/07/29 00:29:50;;;;;;;6.90;3.80;;;;;;;21.15;61.39;101249.63;107022;1251;63668;-72
2022/07/29 00:32:19;;;;;;;7.20;3.10;;;;;;;21.20;61.38;101244.14;106888;1252;60524;-73
2022/07/29 00:37:35;;;;;;;7.50;3.80;;;;;;;21.09;61.89;101240.16;107072;1251;73840;-74
2022/07/29 00:40:04;;;;;;;7.90;3.70;;;;;;;21.05;62.15;101237.96;107032;1251;72588;-74
2022/07/29 00:42:50;;;;;;;9.30;4.30;;;;;;;21.06;62.45;101237.80;106990;1251;60284;-71
2022/07/29 00:45:19;;;;;;;10.20;3.90;;;;;;;21.14;62.11;101234.98;106999;1251;73056;-71
2022/07/29 00:47:48;;;;;;;7.10;3.90;;;;;;;21.24;61.81;101236.05;107206;1251;59081;-72
2022/07/29 00:50:18;;;;;;;6.80;3.80;;;;;;;21.31;61.60;101235.07;107185;1251;59068;-73
2022/07/29 00:52:47;;;;;;;8.50;3.60;;;;;;;21.34;61.26;101234.63;107207;1251;73665;-71
2022/07/29 00:55:17;;;;;;;8.70;3.80;;;;;;;21.33;61.21;101235.59;107063;1251;61532;-75
2022/07/29 00:57:47;;;;;;;9.10;3.80;;;;;;;21.31;61.10;101241.10;106952;1252;69640;-72
2022/07/29 01:00:23;;;;;;;7.80;4.10;;;;;;;21.28;60.58;101240.61;107037;1253;63654;-73
2022/07/29 01:02:52;;;;;;;12.90;4.40;;;;;;;21.24;60.49;101237.83;106765;1253;61180;-71
2022/07/29 01:05:24;;;;;;;11.70;4.20;;;;;;;21.22;61.51;101235.27;106982;1253;61990;-72
2022/07/29 01:08:15;;;;;;;9.10;4.20;;;;;;;21.26;61.76;101235.98;107302;1253;74118;-72
2022/07/29 01:10:46;;;;;;;7.90;3.90;;;;;;;21.30;61.50;101235.38;107417;1251;62406;-71
2022/07/29 01:13:16;;;;;;;8.50;4.30;;;;;;;21.37;61.21;101236.41;107083;1251;69847;-70
2022/07/29 01:15:56;;;;;;;8.40;3.80;;;;;;;21.43;60.95;101235.00;107061;1253;74378;-71
2022/07/29 01:18:41;;;;;;;9.20;4.40;;;;;;;21.49;60.38;101238.09;107056;1253;59192;-74
2022/07/29 01:21:40;;;;;;;7.20;4.30;;;;;;;21.53;60.06;101239.98;107035;1253;58281;-72
2022/07/29 01:24:47;;;;;;;7.70;4.00;;;;;;;21.57;60.38;101235.52;106953;1253;73573;-72
2022/07/29 01:27:56;;;;;;;9.60;4.30;;;;;;;21.54;60.82;101236.52;106915;1253;71996;-73
2022/07/29 01:30:27;;;;;;;6.70;3.70;;;;;;;21.48;61.10;101240.34;106958;1252;59492;-73
2022/07/29 01:33:06;;;;;;;7.10;4.00;;;;;;;21.41;61.17;101231.54;106836;1253;74406;-72
2022/07/29 01:35:41;;;;;;;7.20;3.70;;;;;;;21.53;60.59;101240.94;106842;1253;61574;-73
2022/07/29 01:38:39;;;;;;;6.80;4.10;;;;;;;21.61;59.46;101235.60;106877;1253;59168;-73
2022/07/29 01:41:17;;;;;;;7.00;4.50;;;;;;;21.56;59.56;101238.89;107018;1253;63033;-71
2022/07/29 01:43:56;;;;;;;6.80;4.20;;;;;;;21.51;59.86;101241.14;107056;1252;72310;-74
2022/07/29 01:46:39;;;;;;;9.50;4.70;;;;;;;21.51;59.87;101243.79;107035;1253;71006;-74
2022/07/29 01:49:17;;;;;;;8.00;4.40;;;;;;;21.51;60.21;101242.14;106899;1253;63710;-74
2022/07/29 01:52:13;;;;;;;8.60;4.30;;;;;;;21.52;60.21;101245.06;106966;1252;60592;-73
2022/07/29 01:55:08;;;;;;;9.70;4.30;;;;;;;21.53;60.16;101242.63;106937;1252;58899;-72
2022/07/29 01:57:41;;;;;;;9.80;3.90;;;;;;;21.55;60.35;101239.77;107003;1253;62795;-73
2022/07/29 02:00:11;;;;;;;6.70;4.70;;;;;;;21.55;60.71;101240.26;107048;1252;72271;-71
2022/07/29 02:02:45;;;;;;;9.20;4.20;;;;;;;21.57;60.48;101240.98;106999;1253;71080;-71
2022/07/29 02:05:18;;;;;;;8.30;4.30;;;;;;;21.57;59.92;101242.23;107024;1253;63903;-73
2022/07/29 02:07:49;;;;;;;8.90;4.40;;;;;;;21.55;60.03;101247.34;107103;1253;60559;-72
2022/07/29 02:10:22;;;;;;;9.50;4.30;;;;;;;21.57;60.24;101247.46;107036;1252;62326;-72
2022/07/29 02:12:57;;;;;;;11.20;4.40;;;;;;;21.56;60.41;101244.58;107026;1253;62600;-73
2022/07/29 02:15:30;;;;;;;7.80;4.50;;;;;;;21.51;60.86;101245.65;107093;1252;72205;-72
2022/07/29 02:18:08;;;;;;;7.70;4.00;;;;;;;21.53;61.52;101247.80;107113;1253;59519;-72
2022/07/29 02:20:39;;;;;;;10.60;4.40;;;;;;;21.52;62.06;101248.58;107113;1251;73884;-74
2022/07/29 02:23:11;;;;;;;9.80;4.30;;;;;;;21.51;62.09;101246.95;107142;1252;59043;-73
2022/07/29 02:25:42;;;;;;;7.90;4.50;;;;;;;21.52;61.94;101249.80;107135;1253;58554;-71
2022/07/29 02:28:14;;;;;;;8.40;4.60;;;;;;;21.60;61.52;101245.50;106936;1254;62842;-73
2022/07/29 02:30:44;;;;;;;9.50;4.70;;;;;;;21.68;61.00;101244.77;107199;1251;71452;-72
2022/07/29 02:33:18;;;;;;;11.70;4.90;;;;;;;21.71;61.16;101248.73;107068;1251;71694;-73
2022/07/29 02:35:48;;;;;;;7.80;4.70;;;;;;;21.77;60.48;101257.55;107158;1251;74305;-72
2022/07/29 02:41:17;;;;;;;10.70;5.10;;;;;;;21.78;60.07;101265.02;107168;1253;60940;-73
2022/07/29 02:43:53;;;;;;;10.20;4.60;;;;;;;21.75;60.37;101265.69;107177;1252;74142;-72
2022/07/29 02:46:36;;;;;;;7.80;4.30;;;;;;;21.75;61.23;101271.26;107246;1251;73698;-72
2022/07/29 02:49:35;;;;;;;11.00;4.90;;;;;;;21.76;61.40;101278.96;106983;1253;60274;-73
2022/07/29 02:52:16;;;;;;;7.40;3.90;;;;;;;21.64;62.34;101279.81;107158;1251;63117;-74
2022/07/29 02:54:56;;;;;;;5.90;3.60;;;;;;;21.45;62.49;101281.58;107056;1253;61174;-74
2022/07/29 02:57:44;;;;;;;8.20;3.90;;;;;;;21.25;62.75;101279.70;107136;1253;57463;-73
2022/07/29 03:00:28;;;;;;;5.80;4.00;;;;;;;21.01;63.93;101277.50;107259;1252;62960;-73
2022/07/29 03:03:02;;;;;;;10.00;5.30;;;;;;;20.80;64.59;101279.38;107234;1252;70172;-73
2022/07/29 03:05:32;;;;;;;10.20;4.60;;;;;;;20.68;67.91;101282.66;107186;1253;59808;-75
2022/07/29 03:08:05;;;;;;;7.90;4.10;;;;;;;20.54;67.51;101282.70;107069;1252;73621;-74
2022/07/29 03:10:34;;;;;;;6.50;4.50;;;;;;;20.37;70.99;101288.86;107220;1252;60944;-73
2022/07/29 03:13:05;;;;;;;7.70;4.50;;;;;;;20.26;68.51;101288.25;107312;1251;60499;-74
2022/07/29 03:15:35;;;;;;;7.10;4.60;;;;;;;20.13;69.03;101283.95;107199;1251;62737;-74
2022/07/29 03:18:06;;;;;;;8.20;4.80;;;;;;;20.07;74.74;101283.03;107416;1252;60716;-71
2022/07/29 03:20:37;;;;;;;5.80;4.20;;;;;;;20.06;75.75;101282.08;107153;1253;59878;-74
2022/07/29 03:23:08;;;;;;;6.90;4.00;;;;;;;19.98;73.56;101284.15;107288;1251;62470;-72
2022/07/29 03:25:37;;;;;;;9.20;4.50;;;;;;;19.88;73.15;101283.38;107187;1253;60581;-75
2022/07/29 03:28:05;;;;;;;7.90;4.30;;;;;;;19.81;75.15;101284.40;106932;1253;61496;-73
2022/07/29 03:30:34;;;;;;;5.60;3.90;;;;;;;19.77;75.70;101285.53;106985;1253;62690;-74
2022/07/29 03:33:06;;;;;;;11.10;5.00;;;;;;;19.83;77.82;101288.86;107080;1253;72547;-75
2022/07/29 03:35:41;;;;;;;8.10;4.70;;;;;;;19.86;78.44;101289.45;107126;1253;71304;-75
2022/07/29 03:38:10;;;;;;;5.40;4.30;;;;;;;19.94;79.24;101289.83;107208;1253;63727;-76
2022/07/29 03:40:51;;;;;;;7.60;4.20;;;;;;;19.99;79.47;101284.89;107231;1253;58792;-75
2022/07/29 03:43:23;;;;;;;9.10;4.60;;;;;;;20.04;78.64;101286.30;107193;1251;59004;-74
2022/07/29 03:45:54;;;;;;;8.30;4.80;;;;;;;20.08;79.47;101286.73;107119;1252;73546;-77
2022/07/29 03:48:26;;;;;;;9.40;5.00;;;;;;;20.08;78.69;101283.38;107252;1252;63016;-76
2022/07/29 03:50:55;;;;;;;7.30;5.20;;;;;;;20.09;78.95;101287.02;107119;1253;70578;-74
2022/07/29 03:53:24;;;;;;;7.10;5.10;;;;;;;20.04;80.33;101284.34;107199;1251;63103;-75
2022/07/29 03:56:00;;;;;;;8.10;5.30;;;;;;;19.90;82.63;101283.88;107230;1251;62027;-75
2022/07/29 03:58:31;;;;;;;11.10;5.30;;;;;;;19.87;83.48;101287.52;107250;1251;62528;-73
2022/07/29 04:01:00;;;;;;;8.30;5.30;;;;;;;19.92;81.91;101290.53;107041;1253;63639;-72
2022/07/29 04:03:29;;;;;;;9.40;5.00;;;;;;;20.08;81.71;101297.11;107202;1253;60863;-75
2022/07/29 04:06:07;;;;;;;9.30;5.00;;;;;;;20.24;82.21;101297.44;107245;1251;69764;-74
2022/07/29 04:08:36;;;;;;;8.00;5.20;;;;;;;20.34;82.47;101300.45;107309;1251;63654;-76
2022/07/29 04:11:06;;;;;;;6.30;5.00;;;;;;;20.44;82.62;101302.89;107373;1253;61868;-72
2022/07/29 04:13:34;;;;;;;10.10;5.20;;;;;;;20.49;82.42;101302.55;107072;1252;59019;-73
2022/07/29 04:16:05;;;;;;;6.80;5.50;;;;;;;20.57;82.33;101306.56;107251;1251;62052;-73
2022/07/29 04:18:34;;;;;;;7.20;5.50;;;;;;;20.64;81.76;101306.42;107171;1253;61464;-76
2022/07/29 04:21:04;;;;;;;12.00;6.20;;;;;;;20.67;82.31;101305.20;107522;1251;59549;-77
2022/07/29 04:23:33;;;;;;;7.70;5.30;;;;;;;20.68;81.99;101305.83;107256;1253;63250;-74
2022/07/29 04:26:02;;;;;;;9.40;5.30;;;;;;;20.72;81.56;101302.70;107271;1251;58942;-75
2022/07/29 04:28:31;;;;;;;8.20;5.50;;;;;;;20.82;81.08;101305.02;107477;1253;61324;-75
2022/07/29 04:31:00;;;;;;;9.30;5.50;;;;;;;20.93;80.47;101303.50;107392;1251;72811;-75
2022/07/29 04:33:28;;;;;;;10.20;6.00;;;;;;;21.06;81.33;101304.73;107564;1253;72286;-76
2022/07/29 04:35:57;;;;;;;10.00;5.50;;;;;;;21.20;80.48;101307.33;107871;1253;59442;-71
2022/07/29 04:38:26;;;;;;;8.90;6.10;;;;;;;21.34;80.16;101305.46;107467;1251;63086;-75
2022/07/29 04:40:55;;;;;;;8.70;6.30;;;;;;;21.48;80.53;101311.38;107313;1251;58967;-76
2022/07/29 04:43:24;;;;;;;9.00;6.10;;;;;;;21.61;80.39;101314.41;107252;1251;60468;-76
2022/07/29 04:45:54;;;;;;;7.60;6.20;;;;;;;21.69;80.77;101318.35;107335;1251;61947;-76
2022/07/29 04:48:23;;;;;;;9.40;6.40;;;;;;;21.77;80.93;101313.35;107971;1253;61520;-76
2022/07/29 04:50:56;;;;;;;10.30;6.80;;;;;;;21.82;80.44;101308.52;107670;1253;60311;-78
2022/07/29 04:53:26;;;;;;;13.40;6.60;;;;;;;21.86;80.32;101310.71;107481;1252;73113;-72
2022/07/29 04:55:55;;;;;;;11.30;6.50;;;;;;;21.81;80.22;101315.91;106950;1253;62395;-72
2022/07/29 04:58:24;;;;;;;10.50;7.10;;;;;;;21.86;80.33;101314.83;107406;1253;59042;-73
2022/07/29 05:00:53;;;;;;;12.10;7.10;;;;;;;21.84;81.25;101317.70;107058;1254;63626;-72
2022/07/29 05:03:22;;;;;;;8.50;7.20;;;;;;;21.89;81.17;101319.09;107076;1253;61903;-73
2022/07/29 05:05:51;;;;;;;10.00;6.90;;;;;;;21.90;81.59;101320.34;107219;1252;60207;-72
2022/07/29 05:08:20;;;;;;;13.80;7.10;;;;;;;21.98;81.50;101322.49;107986;1251;72775;-74
2022/07/29 05:10:49;;;;;;;9.80;7.00;;;;;;;21.95;82.11;101323.70;107584;1251;58972;-73
2022/07/29 05:13:18;;;;;;;9.20;7.50;;;;;;;21.90;81.82;101324.80;107326;1251;61156;-71
2022/07/29 05:15:47;;;;;;;11.30;6.90;;;;;;;21.97;81.39;101324.71;107153;1251;73097;-71
2022/07/29 05:18:16;;;;;;;10.80;7.10;;;;;;;22.11;80.85;101329.09;107620;1253;72412;-79
2022/07/29 05:20:44;;;;;;;8.50;6.30;;;;;;;22.11;81.23;101330.39;108181;1253;70528;-78
2022/07/29 05:23:14;;;;;;;8.50;6.20;;;;;;;22.11;80.33;101334.08;107895;1253;74193;-79
2022/07/29 05:25:46;;;;;;;8.80;6.20;;;;;;;22.07;80.84;101331.95;108030;1252;58923;-79
2022/07/29 05:28:14;;;;;;;8.70;6.30;;;;;;;21.98;81.20;101332.65;108590;1252;60295;-79
2022/07/29 05:30:44;;;;;;;7.80;6.70;;;;;;;21.98;81.34;101335.25;108515;1253;63653;-80
2022/07/29 05:33:21;;;;;;;8.90;6.10;;;;;;;21.90;81.73;101330.11;108569;1252;62067;-80
2022/07/29 05:36:06;;;;;;;8.40;6.10;;;;;;;22.04;80.94;101325.40;108470;1252;70561;-74
2022/07/29 05:38:36;;;;;;;;;;;;;;;22.11;80.01;101322.64;108281;1252;63803;-79
2022/07/29 05:41:05;;;;;;;8.30;6.40;;;;;;;22.20;80.28;101324.14;108488;1252;61691;-77
2022/07/29 05:43:35;;;;;;;10.20;6.80;;;;;;;22.26;79.46;101329.17;107901;1253;59150;-76
2022/07/29 05:46:04;;;;;;;9.90;6.00;;;;;;;22.26;79.79;101327.02;108038;1253;71841;-74
2022/07/29 05:48:33;;;;;;;8.90;6.00;;;;;;;22.33;79.22;101331.08;108295;1253;62269;-78
2022/07/29 05:51:02;;;;;;;8.80;6.10;;;;;;;22.29;78.54;101320.67;107585;1252;70328;-75
2022/07/29 05:53:31;;;;;;;10.10;6.10;;;;;;;22.34;79.06;101332.20;108174;1253;62727;-78
2022/07/29 05:56:07;;;;;;;8.30;5.60;;;;;;;22.25;78.16;101326.42;108331;1253;60530;-78
2022/07/29 05:58:36;;;;;;;9.80;6.50;;;;;;;22.25;78.36;101329.51;108561;1253;59799;-77
2022/07/29 06:01:05;;;;;;;8.90;6.10;;;;;;;22.21;78.07;101333.89;108495;1252;72733;-78
2022/07/29 06:03:34;;;;;;;10.20;5.80;;;;;;;22.10;77.86;101338.09;108269;1253;72589;-80
2022/07/29 06:06:04;;;;;;;11.10;7.30;;;;;;;22.06;78.49;101341.66;108555;1253;59605;-77
2022/07/29 06:08:36;;;;;;;9.30;6.10;;;;;;;22.08;78.98;101338.09;108611;1252;73942;-78
2022/07/29 06:11:05;;;;;;;9.80;6.80;;;;;;;22.06;79.11;101342.20;108643;1252;62998;-78
2022/07/29 06:13:34;;;;;;;6.70;5.40;;;;;;;21.96;79.80;101348.96;108412;1253;60762;-78
2022/07/29 06:16:03;;;;;;;9.30;5.90;;;;;;;21.83;79.86;101352.34;108691;1253;74178;-79
2022/07/29 06:18:32;;;;;;;8.10;6.20;;;;;;;21.78;80.05;101352.42;108690;1253;61843;-81
2022/07/29 06:21:01;;;;;;;9.70;5.60;;;;;;;21.73;80.94;101358.67;108561;1253;59030;-79
2022/07/29 06:23:30;;;;;;;6.00;4.30;;;;;;;21.55;78.63;101359.54;108528;1253;72265;-79
2022/07/29 06:25:59;;;;;;;6.30;4.10;;;;;;;21.42;77.73;101356.35;108225;1253;61290;-78
2022/07/29 06:28:28;;;;;;;6.70;3.90;;;;;;;21.29;77.89;101358.03;108447;1253;60398;-78
2022/07/29 06:30:56;;;;;;;5.40;4.30;;;;;;;21.18;77.81;101358.37;108411;1250;63527;-78
2022/07/29 06:33:25;;;;;;;7.00;3.90;;;;;;;21.20;77.26;101358.91;108816;1252;72685;-78
2022/07/29 06:35:54;;;;;;;6.70;4.00;;;;;;;21.22;77.68;101356.29;108788;1253;60523;-77
2022/07/29 06:38:23;;;;;;;8.70;5.20;;;;;;;21.23;77.90;101365.23;108598;1252;72994;-80
2022/07/29 06:41:01;;;;;;;8.00;4.70;;;;;;;21.17;78.06;101365.71;108660;1253;62740;-77
2022/07/29 06:43:41;;;;;;;6.80;4.40;;;;;;;21.18;78.60;101364.29;108671;1253;58399;-80
2022/07/29 06:46:20;;;;;;;5.70;4.10;;;;;;;21.19;78.61;101358.52;108463;1254;62175;-79
2022/07/29 06:48:51;;;;;;;6.30;4.20;;;;;;;21.21;77.72;101370.98;108643;1253;71360;-79
2022/07/29 06:51:22;;;;;;;9.80;4.20;;;;;;;21.23;77.78;101368.27;108807;1253;69562;-79
2022/07/29 06:53:53;;;;;;;5.90;4.00;;;;;;;21.21;77.47;101371.39;108873;1253;62995;-83
2022/07/29 06:56:36;;;;;;;5.60;4.00;;;;;;;21.24;76.90;101371.89;108512;1254;57643;-78
2022/07/29 06:59:09;;;;;;;4.70;3.90;;;;;;;21.35;76.41;101373.02;108750;1253;60427;-79
2022/07/29 07:01:42;;;;;;;12.20;4.10;;;;;;;21.34;75.56;101371.23;108520;1253;63565;-79
2022/07/29 07:04:14;;;;;;;;;;;;;;;21.28;74.99;101373.21;108864;1253;60772;-79
2022/07/29 07:06:44;;;;;;;6.40;3.20;;;;;;;21.37;74.32;101377.02;108931;1253;60882;-79
2022/07/29 07:09:13;;;;;;;5.00;3.50;;;;;;;21.31;75.06;101378.23;109029;1253;63010;-80
2022/07/29 07:11:42;;;;;;;4.90;3.30;;;;;;;21.33;74.82;101380.00;108907;1253;58069;-79
2022/07/29 07:14:11;;;;;;;4.50;3.10;;;;;;;21.39;74.14;101380.92;108849;1253;60452;-78
2022/07/29 07:16:39;;;;;;;7.50;3.60;;;;;;;21.41;74.15;101382.66;108932;1253;73393;-80
2022/07/29 07:19:08;;;;;;;5.90;3.70;;;;;;;21.45;73.96;101383.34;109115;1252;62224;-79
2022/07/29 07:21:41;;;;;;;5.50;3.20;;;;;;;21.49;73.41;101387.13;109223;1252;59037;-79
2022/07/29 07:24:10;;;;;;;11.00;3.90;;;;;;;21.51;73.95;101387.09;108944;1252;62550;-81
2022/07/29 07:26:39;;;;;;;5.50;3.80;;;;;;;21.44;74.72;101388.25;108947;1252;60378;-80
2022/07/29 07:29:08;;;;;;;5.50;3.60;;;;;;;21.43;74.10;101391.64;108332;1252;58780;-80
2022/07/29 07:31:37;;;;;;;6.10;4.00;;;;;;;21.30;74.29;101389.36;108674;1253;63924;-80
2022/07/29 07:34:06;;;;;;;5.80;3.50;;;;;;;21.31;74.57;101393.64;108707;1253;62192;-80
2022/07/29 07:36:37;;;;;;;6.10;3.90;;;;;;;21.33;75.53;101393.29;108765;1253;70796;-79
2022/07/29 07:39:06;;;;;;;6.20;3.90;;;;;;;21.37;74.79;101396.20;108785;1252;74360;-79
2022/07/29 07:41:34;;;;;;;6.40;3.50;;;;;;;21.42;74.75;101396.59;108980;1252;60956;-81
2022/07/29 07:44:04;;;;;;;5.70;4.10;;;;;;;21.39;74.59;101397.78;108793;1253;58024;-80
2022/07/29 07:46:32;;;;;;;8.70;3.70;;;;;;;21.39;74.24;101398.81;108516;1253;388780;-79
2022/07/29 07:49:01;;;;;;;10.40;3.70;;;;;;;21.42;72.75;101399.25;108602;1253;61620;-80
2022/07/29 07:51:30;;;;;;;7.30;3.90;;;;;;;21.44;72.57;101401.97;108529;1254;59127;-79
2022/07/29 07:54:00;;;;;;;9.20;3.80;;;;;;;21.46;72.67;101404.99;108803;1254;62475;-79
2022/07/29 07:56:30;;;;;;;5.80;3.40;;;;;;;21.53;72.40;101407.13;108932;1252;60415;-81
2022/07/29 07:59:03;;;;;;;6.60;4.10;;;;;;;21.54;70.97;101408.06;108627;1253;59098;-80
2022/07/29 08:01:32;;;;;;;6.80;4.20;;;;;;;21.60;70.09;101411.27;108857;1253;62475;-78
2022/07/29 08:04:21;;;;;;;8.10;4.00;;;;;;;21.69;70.38;101414.51;108930;1252;60803;-79
2022/07/29 08:06:57;;;;;;;6.60;3.60;;;;;;;21.85;70.21;101413.01;108929;1253;59204;-80
2022/07/29 08:09:28;;;;;;;8.90;4.30;;;;;;;21.91;69.63;101412.86;108845;1253;62545;-80
2022/07/29 08:11:59;;;;;;;7.50;3.90;;;;;;;21.92;68.91;101411.69;109094;1253;57564;-82
2022/07/29 08:14:28;;;;;;;5.30;3.10;;;;;;;21.96;68.43;101416.95;108873;1253;60557;-80
2022/07/29 08:16:58;;;;;;;6.50;3.50;;;;;;;21.97;66.73;101416.81;108837;1252;73459;-80
2022/07/29 08:19:28;;;;;;;5.30;3.20;;;;;;;22.02;65.72;101417.58;109072;1252;61283;-79
2022/07/29 08:21:57;;;;;;;9.70;3.50;;;;;;;22.03;65.06;101420.80;109179;1253;59226;-80
2022/07/29 08:24:46;;;;;;;5.20;3.40;;;;;;;22.08;65.44;101423.95;109330;1253;73150;-78
2022/07/29 08:27:14;;;;;;;6.00;3.50;;;;;;;22.05;64.50;101424.70;109247;1253;57614;-81
2022/07/29 08:30:04;;;;;;;5.90;3.60;;;;;;;22.10;63.98;101429.92;109279;1253;57210;-81
2022/07/29 08:32:32;;;;;;;7.80;3.30;;;;;;;22.12;63.61;101434.88;109255;1253;72759;-79
2022/07/29 08:35:23;;;;;;;5.80;3.30;;;;;;;22.20;63.27;101436.39;109308;1253;61323;-77
2022/07/29 08:37:56;;;;;;;6.10;3.30;;;;;;;22.26;62.45;101443.05;109022;1253;59240;-79
2022/07/29 08:40:25;;;;;;;6.60;3.70;;;;;;;22.30;62.62;101447.45;109127;1253;72284;-79
2022/07/29 08:43:08;;;;;;;8.00;4.40;;;;;;;22.40;62.07;101448.27;109251;1253;57427;-80
2022/07/29 08:45:51;;;;;;;7.50;4.60;;;;;;;22.45;61.54;101447.20;109258;1253;57405;-80
2022/07/29 08:48:24;;;;;;;8.10;5.40;;;;;;;22.63;61.65;101450.63;109305;1253;63269;-82
2022/07/29 08:51:01;;;;;;;5.40;3.90;;;;;;;22.68;61.17;101452.16;109311;1253;60946;-81
2022/07/29 08:53:42;;;;;;;6.70;3.70;;;;;;;22.73;61.36;101449.32;109211;1252;68751;-79
2022/07/29 08:56:19;;;;;;;6.40;3.50;;;;;;;22.70;61.43;101447.41;109212;1252;62924;-80
2022/07/29 08:58:48;;;;;;;5.20;3.70;;;;;;;22.70;61.42;101447.60;109311;1253;57815;-81
2022/07/29 09:01:52;;;;;;;6.30;3.30;;;;;;;22.66;62.47;101448.38;109280;1253;57468;-81
2022/07/29 09:04:27;;;;;;;6.20;3.20;;;;;;;22.87;61.80;101446.73;109313;1253;72809;-79
2022/07/29 09:07:17;;;;;;;;;;;;;;;22.81;60.06;101445.08;109107;1253;71883;-79
2022/07/29 09:09:48;;;;;;;5.60;2.90;;;;;;;22.59;60.61;101447.17;109450;1253;60659;-80
2022/07/29 09:12:24;;;;;;;4.80;3.10;;;;;;;22.66;60.27;101449.33;109306;1253;62366;-80
2022/07/29 09:14:57;;;;;;;3.90;2.80;;;;;;;22.62;60.69;101446.77;109309;1252;60377;-80
2022/07/29 09:17:50;;;;;;;5.50;3.60;;;;;;;22.76;60.42;101448.17;109500;1253;61150;-78
2022/07/29 09:20:22;;;;;;;5.00;3.20;;;;;;;22.88;59.49;101448.96;109213;1253;74205;-79
2022/07/29 09:22:53;;;;;;;5.70;2.80;;;;;;;22.92;59.65;101449.41;109225;1253;62011;-80
2022/07/29 09:25:40;;;;;;;4.90;2.70;;;;;;;22.89;59.51;101447.27;109307;1253;59311;-80
2022/07/29 09:28:20;;;;;;;4.20;2.80;;;;;;;22.87;60.31;101456.20;109268;1253;62495;-79
2022/07/29 09:30:57;;;;;;;4.70;2.70;;;;;;;22.96;59.83;101455.29;109268;1253;57654;-79
2022/07/29 09:33:35;;;;;;;4.50;2.80;;;;;;;23.05;58.20;101454.34;109327;1253;57601;-78
2022/07/29 09:36:11;;;;;;;4.60;2.80;;;;;;;23.07;58.23;101453.40;109293;1253;71449;-79
2022/07/29 09:38:59;;;;;;;6.90;3.80;;;;;;;23.03;58.24;101452.62;109278;1252;61318;-79
2022/07/29 09:41:46;;;;;;;7.70;3.60;;;;;;;22.93;58.17;101450.16;108802;1254;59119;-79
2022/07/29 09:44:15;;;;;;;7.00;2.90;;;;;;;22.94;58.51;101445.73;108969;1253;72090;-79
2022/07/29 09:47:06;;;;;;;7.80;2.80;;;;;;;22.97;57.98;101444.11;108940;1253;57516;-83
2022/07/29 09:49:57;;;;;;;4.30;2.80;;;;;;;22.83;58.81;101441.88;109083;1252;57726;-83
2022/07/29 09:52:29;;;;;;;5.60;2.70;;;;;;;22.80;59.81;101445.36;109010;1253;72841;-80
2022/07/29 09:55:09;;;;;;;6.40;2.80;;;;;;;22.80;59.91;101442.33;109009;1252;71811;-80
2022/07/29 09:57:46;;;;;;;5.00;3.10;;;;;;;22.75;61.02;101444.48;109225;1253;70181;-80
2022/07/29 10:00:22;;;;;;;4.90;2.90;;;;;;;22.67;61.83;101444.11;109177;1253;63224;-80
2022/07/29 10:03:01;;;;;;;7.60;3.00;;;;;;;22.71;60.71;101448.30;108727;1253;58734;-79
2022/07/29 10:05:30;;;;;;;5.20;2.80;;;;;;;22.64;59.85;101447.85;108785;1253;58687;-78
2022/07/29 10:08:05;;;;;;;5.60;2.90;;;;;;;22.69;60.18;101446.84;109066;1253;62169;-79
2022/07/29 10:10:41;;;;;;;5.50;3.20;;;;;;;22.67;61.50;101446.61;109031;1253;70065;-79
2022/07/29 10:13:14;;;;;;;9.10;4.80;;;;;;;22.66;62.23;101448.21;108808;1253;59210;-78
2022/07/29 10:15:46;;;;;;;10.20;4.50;;;;;;;22.61;63.21;101442.71;109171;1253;63108;-80
2022/07/29 10:18:17;;;;;;;6.10;3.20;;;;;;;22.52;64.83;101441.95;109132;1252;58002;-81
2022/07/29 10:20:49;;;;;;;5.30;3.70;;;;;;;22.39;66.09;101441.48;108888;1253;57267;-80
2022/07/29 10:23:19;;;;;;;6.20;3.40;;;;;;;22.18;67.49;101439.54;108569;1253;72801;-79
2022/07/29 10:25:48;;;;;;;10.70;4.30;;;;;;;21.96;69.32;101433.08;108868;1252;71991;-79
2022/07/29 10:28:17;;;;;;;8.40;3.90;;;;;;;21.87;72.05;101435.67;108583;1254;70608;-79
2022/07/29 10:30:48;;;;;;;7.30;3.90;;;;;;;21.85;73.68;101437.48;108621;1253;74292;-81
2022/07/29 10:33:52;;;;;;;11.00;4.30;;;;;;;21.79;74.08;101435.64;108684;1253;57568;-78
2022/07/29 10:36:43;;;;;;;6.70;4.40;;;;;;;21.64;75.58;101433.69;108472;1253;59483;-78
2022/07/29 10:39:42;;;;;;;8.60;4.40;;;;;;;21.40;76.59;101396.10;109054;1252;62756;-77
2022/07/29 10:42:24;;;;;;;6.80;4.70;;;;;;;21.68;77.04;101434.15;108912;1253;71393;-79
2022/07/29 10:45:04;;;;;;;7.70;4.30;;;;;;;21.68;76.48;101433.98;108724;1253;70020;-80
2022/07/29 10:47:33;;;;;;;5.70;4.10;;;;;;;21.79;75.73;101432.98;108898;1253;62857;-79
2022/07/29 10:50:24;;;;;;;8.40;4.60;;;;;;;21.79;75.51;101434.61;108967;1253;57966;-78
2022/07/29 10:52:56;;;;;;;8.80;4.80;;;;;;;21.80;75.45;101432.11;109177;1253;60445;-80
2022/07/29 10:55:46;;;;;;;6.10;4.40;;;;;;;21.80;76.58;101433.61;109183;1253;73572;-80
2022/07/29 10:58:24;;;;;;;7.00;4.70;;;;;;;21.84;76.31;101433.84;108736;1252;73551;-80
2022/07/29 11:00:56;;;;;;;6.60;4.40;;;;;;;21.85;77.14;101434.08;108908;1253;70204;-79
2022/07/29 11:03:51;;;;;;;6.80;4.20;;;;;;;21.82;76.76;101431.09;108891;1252;62465;-79
2022/07/29 11:07:07;;;;;;;12.70;4.60;;;;;;;21.85;76.63;101430.92;109065;1254;57516;-81
2022/07/29 11:09:36;;;;;;;7.10;4.10;;;;;;;21.68;75.61;101411.28;108962;1253;59829;-79
2022/07/29 11:12:36;;;;;;;7.00;4.00;;;;;;;21.76;75.53;101433.79;108718;1252;72857;-80
2022/07/29 11:15:20;;;;;;;8.90;4.80;;;;;;;21.80;77.16;101430.77;109125;1251;70815;-80
2022/07/29 11:17:53;;;;;;;9.50;4.30;;;;;;;21.88;76.62;101435.14;109262;1251;59108;-77
2022/07/29 11:20:41;;;;;;;9.60;4.40;;;;;;;21.84;75.73;101435.98;108901;1252;73095;-81
2022/07/29 11:23:35;;;;;;;7.80;4.50;;;;;;;21.84;75.95;101442.70;108355;1251;60872;-78
2022/07/29 11:26:12;;;;;;;8.00;4.10;;;;;;;21.92;75.93;101437.40;108767;1253;60869;-79
2022/07/29 11:29:04;;;;;;;8.00;4.00;;;;;;;22.05;74.54;101435.12;109507;1252;62573;-81
2022/07/29 11:31:43;;;;;;;8.90;4.70;;;;;;;22.09;74.67;101433.57;109551;1251;60922;-83
2022/07/29 11:34:29;;;;;;;8.00;5.00;;;;;;;22.07;75.31;101434.13;109390;1251;68415;-81
2022/07/29 11:37:27;;;;;;;7.40;4.20;;;;;;;22.00;72.48;101431.14;109275;1249;73660;31
2022/07/29 11:39:59;;;;;;;8.00;4.50;;;;;;;21.98;74.62;101433.67;107503;1264;61946;-79
2022/07/29 11:42:35;;;;;;;5.90;4.10;;;;;;;22.16;73.80;101434.44;107761;1263;60951;-80
2022/07/29 11:46:38;;;;;;;7.90;4.20;;;;;;;22.33;72.47;101431.19;108590;1252;73673;31
2022/07/29 11:49:09;;;;;;;5.60;4.90;;;;;;;22.54;72.53;101431.38;107344;1272;61809;-80
2022/07/29 11:51:42;;;;;;;7.90;4.80;;;;;;;22.80;72.24;101422.33;107000;1271;59175;-79
2022/07/29 11:54:26;;;;;;;7.30;5.00;;;;;;;22.91;71.76;101418.70;107052;1273;73829;-79
2022/07/29 11:56:57;;;;;;;6.60;4.80;;;;;;;23.02;71.41;101414.48;106767;1273;57611;-78
2022/07/29 11:59:27;;;;;;;6.50;4.90;;;;;;;23.11;72.32;101408.67;107071;1273;57733;-79